createdAt,value
2022-09-29T00:03:50.085Z,12.1
2022-09-29T00:08:48.345Z,12
2022-09-29T00:13:46.467Z,11.9
2022-09-29T00:18:44.599Z,11.9
2022-09-29T00:23:42.755Z,11.9
2022-09-29T00:28:40.968Z,11.9
2022-09-29T00:33:38.937Z,11.8
2022-09-29T00:38:37.015Z,11.7
2022-09-29T00:43:34.923Z,11.7
2022-09-29T00:48:32.842Z,11.6
2022-09-29T00:53:31.063Z,11.6
2022-09-29T00:58:28.942Z,10.8
2022-09-29T01:03:26.932Z,11.4
2022-09-29T01:08:24.954Z,11.3
2022-09-29T01:13:23.012Z,11.2
2022-09-29T01:18:21.119Z,11.2
2022-09-29T01:23:19.200Z,11.1
2022-09-29T01:28:17.359Z,11.1
2022-09-29T01:33:15.417Z,11.1
2022-09-29T01:38:13.553Z,11.4
2022-09-29T01:43:11.732Z,11.6
2022-09-29T01:48:10.044Z,11.9
2022-09-29T01:53:08.271Z,12
2022-09-29T01:58:06.535Z,12.2
2022-09-29T02:03:04.560Z,12.1
2022-09-29T02:08:02.552Z,11.9
2022-09-29T02:13:00.568Z,11.7
2022-09-29T02:17:58.598Z,10.9
2022-09-29T02:22:56.518Z,11.5
2022-09-29T02:27:54.671Z,11.3
2022-09-29T02:32:52.589Z,11.2
2022-09-29T02:37:50.463Z,11.2
2022-09-29T02:42:48.512Z,11.1
2022-09-29T02:47:46.677Z,11.1
2022-09-29T02:52:44.669Z,11.2
2022-09-29T02:57:42.883Z,11.4
2022-09-29T03:02:40.959Z,11.5
2022-09-29T03:07:39.334Z,11.7
2022-09-29T03:12:37.442Z,11.7
2022-09-29T03:17:35.656Z,11.6
2022-09-29T03:22:33.795Z,11.5
2022-09-29T03:27:31.843Z,11.5
2022-09-29T03:32:30.000Z,11.4
2022-09-29T03:37:28.192Z,11.4
2022-09-29T03:42:26.384Z,11.4
2022-09-29T03:47:24.579Z,11.4
2022-09-29T03:52:22.450Z,11.3
2022-09-29T03:57:20.458Z,11.1
2022-09-29T04:02:18.602Z,11.1
2022-09-29T04:07:16.842Z,11.3
2022-09-29T04:12:15.073Z,11.5
2022-09-29T04:17:13.363Z,11.8
2022-09-29T04:22:11.973Z,11.9
2022-09-29T04:27:10.417Z,11.9
2022-09-29T04:32:08.621Z,12
2022-09-29T04:37:07.096Z,12.1
2022-09-29T04:42:05.370Z,12.3
2022-09-29T04:47:03.479Z,12.4
2022-09-29T04:52:01.619Z,12.6
2022-09-29T04:56:59.958Z,12.9
2022-09-29T05:01:58.640Z,13.3
2022-09-29T05:06:57.333Z,14.4
2022-09-29T05:11:57.524Z,16.7
2022-09-29T05:16:57.688Z,18.9
2022-09-29T05:21:57.272Z,20.4
2022-09-29T05:26:58.569Z,22
2022-09-29T05:31:56.813Z,23.7
2022-09-29T05:36:56.316Z,24.5
2022-09-29T05:41:58.874Z,25
2022-09-29T05:46:53.913Z,26.6
2022-09-29T05:51:53.060Z,28
2022-09-29T05:56:52.309Z,28.6
2022-09-29T06:01:48.778Z,26.9
2022-09-29T06:06:46.286Z,26.7
2022-09-29T06:11:44.683Z,27
2022-09-29T06:16:44.746Z,30.3
2022-09-29T06:21:46.524Z,33.9
2022-09-29T06:26:43.584Z,31.2
2022-09-29T06:31:38.633Z,27.8
2022-09-29T06:36:35.080Z,26.5
2022-09-29T06:41:33.779Z,28.1
2022-09-29T06:46:33.121Z,28.6
2022-09-29T06:51:43.222Z,29.2
2022-09-29T06:56:30.305Z,29.9
2022-09-29T07:01:29.486Z,32
2022-09-29T07:06:27.480Z,30.7
2022-09-29T07:11:24.472Z,29.6
2022-09-29T07:16:22.751Z,30.6
2022-09-29T07:21:21.079Z,30.7
2022-09-29T07:26:18.812Z,30.5
2022-09-29T07:31:17.232Z,30.8
2022-09-29T07:36:15.616Z,31.1
2022-09-29T07:41:14.687Z,32.7
2022-09-29T07:46:15.142Z,35.1
2022-09-29T07:51:14.941Z,36.7
2022-09-29T07:56:13.455Z,37
2022-09-29T08:01:11.047Z,36.5
2022-09-29T08:06:09.328Z,36
2022-09-29T08:11:07.866Z,35.7
2022-09-29T08:16:03.814Z,32.9
2022-09-29T08:21:01.452Z,32.1
2022-09-29T08:26:01.591Z,32.5
2022-09-29T08:30:58.913Z,33
2022-09-29T08:35:55.643Z,34.4
2022-09-29T08:40:54.777Z,34.6
2022-09-29T08:46:00.431Z,37.3
2022-09-29T08:50:52.858Z,37.1
2022-09-29T08:55:50.392Z,37.1
2022-09-29T09:00:49.198Z,38.6
2022-09-29T09:05:49.893Z,41
2022-09-29T09:10:47.916Z,41.3
2022-09-29T09:15:45.845Z,40.2
2022-09-29T09:20:43.477Z,40.2
2022-09-29T09:25:41.660Z,40.2
2022-09-29T09:30:40.178Z,41.7
2022-09-29T09:35:45.451Z,40.5
2022-09-29T09:40:34.699Z,40.1
2022-09-29T09:45:33.901Z,40.4
2022-09-29T09:50:31.852Z,40.5
2022-09-29T09:55:27.663Z,38.9
2022-09-29T10:00:27.146Z,41
2022-09-29T10:05:25.084Z,41.6
2022-09-29T10:10:24.148Z,42.7
2022-09-29T10:15:22.464Z,42.8
2022-09-29T10:20:20.347Z,41.7
2022-09-29T10:25:18.199Z,41.6
2022-09-29T10:30:15.630Z,41.2
2022-09-29T10:35:12.376Z,41.7
2022-09-29T10:40:12.233Z,44.1
2022-09-29T10:45:09.051Z,43.5
2022-09-29T10:50:07.519Z,44.4
2022-09-29T10:55:06.120Z,44.1
2022-09-29T11:00:03.654Z,42.7
2022-09-29T11:05:00.498Z,42
2022-09-29T11:09:57.473Z,41.4
2022-09-29T11:14:52.218Z,37
2022-09-29T11:19:47.286Z,33.9
2022-09-29T11:24:43.999Z,32.9
2022-09-29T11:29:43.275Z,35.3
2022-09-29T11:34:43.217Z,38.2
2022-09-29T11:39:41.954Z,38.9
2022-09-29T11:44:41.103Z,39.7
2022-09-29T11:49:37.223Z,35.7
2022-09-29T11:54:31.972Z,33.2
2022-09-29T11:59:29.063Z,32.5
2022-09-29T12:04:26.405Z,32.3
2022-09-29T12:09:25.461Z,33.9
2022-09-29T12:14:25.209Z,35.6
2022-09-29T12:19:24.364Z,38.3
2022-09-29T12:24:24.483Z,40.6
2022-09-29T12:29:23.578Z,41.2
2022-09-29T12:34:21.497Z,40.2
2022-09-29T12:39:16.705Z,37.8
2022-09-29T12:44:12.178Z,34.4
2022-09-29T12:49:07.671Z,31.5
2022-09-29T12:54:03.999Z,30.1
2022-09-29T12:59:01.443Z,29.3
2022-09-29T13:03:59.268Z,29
2022-09-29T13:08:57.716Z,29.2
2022-09-29T13:13:55.089Z,28.6
2022-09-29T13:18:59.940Z,27.9
2022-09-29T13:23:50.172Z,27
2022-09-29T13:28:47.853Z,26.7
2022-09-29T13:33:45.550Z,26.3
2022-09-29T13:38:43.348Z,25.9
2022-09-29T13:43:40.998Z,25.4
2022-09-29T13:48:38.820Z,25.2
2022-09-29T13:53:36.871Z,25
2022-09-29T13:58:34.550Z,24.7
2022-09-29T14:03:31.885Z,24.1
2022-09-29T14:08:30.247Z,23.9
2022-09-29T14:13:28.864Z,24.3
2022-09-29T14:18:27.211Z,24.3
2022-09-29T14:23:25.136Z,23.7
2022-09-29T14:28:22.826Z,23.2
2022-09-29T14:33:20.669Z,22.6
2022-09-29T14:38:18.577Z,21.9
2022-09-29T14:43:16.374Z,21.3
2022-09-29T14:48:14.212Z,21.1
2022-09-29T14:53:11.853Z,20.8
2022-09-29T14:58:09.567Z,20.1
2022-09-29T15:03:23.822Z,19.7
2022-09-29T15:08:04.933Z,19.5
2022-09-29T15:13:02.887Z,19.2
2022-09-29T15:18:00.660Z,18.9
2022-09-29T15:22:58.775Z,18.7
2022-09-29T15:27:56.690Z,18.5
2022-09-29T15:32:54.610Z,18.4
2022-09-29T15:37:52.600Z,18.1
2022-09-29T15:42:50.776Z,17.8
2022-09-29T15:47:47.177Z,17.8
2022-09-29T15:52:45.338Z,17.6
2022-09-29T15:57:43.469Z,16.8
2022-09-29T16:02:41.358Z,17.4
2022-09-29T16:07:39.552Z,17.3
2022-09-29T16:12:37.531Z,17.3
2022-09-29T16:17:35.629Z,17.1
2022-09-29T16:22:33.558Z,16.9
2022-09-29T16:27:31.344Z,16.6
2022-09-29T16:32:29.359Z,16.4
2022-09-29T16:37:27.449Z,16.3
2022-09-29T16:42:25.619Z,16.1
2022-09-29T16:47:23.717Z,16.1
2022-09-29T16:52:21.792Z,15.6
2022-09-29T16:57:19.812Z,15.8
2022-09-29T17:02:17.909Z,15.7
2022-09-29T17:07:16.012Z,15.4
2022-09-29T17:12:13.879Z,15.4
2022-09-29T17:17:11.901Z,15.3
2022-09-29T17:22:09.977Z,15.2
2022-09-29T17:27:08.082Z,15.3
2022-09-29T17:32:05.945Z,15.2
2022-09-29T17:37:04.112Z,15.2
2022-09-29T17:42:02.258Z,15.2
2022-09-29T17:47:17.280Z,15.2
2022-09-29T17:51:58.444Z,15.2
2022-09-29T17:57:00.216Z,15.2
2022-09-29T18:01:54.794Z,15.1
2022-09-29T18:06:52.915Z,15.1
2022-09-29T18:11:51.139Z,15.1
2022-09-29T18:16:49.349Z,15
2022-09-29T18:21:47.481Z,15
2022-09-29T18:26:45.638Z,14.9
2022-09-29T18:31:43.827Z,15
2022-09-29T18:36:41.954Z,14.9
2022-09-29T18:41:40.148Z,14.9
2022-09-29T18:46:38.357Z,14.9
2022-09-29T18:51:36.318Z,14.8
2022-09-29T18:56:34.366Z,14.8
2022-09-29T19:01:32.636Z,14.7
2022-09-29T19:06:30.543Z,14.5
2022-09-29T19:11:28.536Z,14.4
2022-09-29T19:16:26.459Z,14.2
2022-09-29T19:21:24.621Z,14.1
2022-09-29T19:26:22.636Z,14.2
2022-09-29T19:31:20.784Z,14.3
2022-09-29T19:36:18.895Z,14.4
2022-09-29T19:41:17.367Z,14.4
2022-09-29T19:46:15.643Z,14.3
2022-09-29T19:51:13.781Z,14.4
2022-09-29T19:56:11.804Z,14.3
2022-09-29T20:01:10.122Z,14.4
2022-09-29T20:06:08.425Z,14.4
2022-09-29T20:11:06.392Z,14.5
2022-09-29T20:16:04.825Z,14.5
2022-09-29T20:21:03.009Z,14.5
2022-09-29T20:26:01.388Z,14.5
2022-09-29T20:30:59.719Z,14.6
2022-09-29T20:35:57.791Z,14.5
2022-09-29T20:40:55.944Z,14.4
2022-09-29T20:45:53.907Z,14.4
2022-09-29T20:50:51.831Z,14.3
2022-09-29T20:55:49.909Z,14.3
2022-09-29T21:00:48.090Z,14.1
2022-09-29T21:05:46.235Z,14.1
2022-09-29T21:10:44.358Z,14.1
2022-09-29T21:15:42.522Z,13.9
2022-09-29T21:20:40.537Z,13.9
2022-09-29T21:25:38.495Z,13.7
2022-09-29T21:30:36.522Z,13.5
2022-09-29T21:35:34.385Z,13.4
2022-09-29T21:40:30.906Z,13.3
2022-09-29T21:45:28.775Z,13
2022-09-29T21:50:26.766Z,12.9
2022-09-29T21:55:24.885Z,12.9
2022-09-29T22:00:22.825Z,13
2022-09-29T22:05:20.861Z,12.7
2022-09-29T22:10:18.711Z,12.7
2022-09-29T22:15:16.744Z,12.6
2022-09-29T22:20:14.953Z,12.5
2022-09-29T22:25:12.850Z,12.6
2022-09-29T22:30:11.119Z,12.6
2022-09-29T22:35:09.224Z,12.5
2022-09-29T22:40:07.472Z,12.3
2022-09-29T22:45:05.573Z,12.3
2022-09-29T22:50:03.781Z,12.1
2022-09-29T22:55:02.226Z,12.1
2022-09-29T23:00:00.334Z,11.9
2022-09-29T23:04:57.983Z,11.8
2022-09-29T23:09:55.890Z,11.6
2022-09-29T23:14:53.930Z,11.5
2022-09-29T23:19:52.019Z,11.4
2022-09-29T23:24:50.125Z,11.4
2022-09-29T23:29:48.297Z,11.4
2022-09-29T23:34:46.362Z,11.3
2022-09-29T23:39:44.199Z,11.3
2022-09-29T23:44:42.293Z,11.4
2022-09-29T23:49:40.591Z,11.4
2022-09-29T23:54:38.591Z,11.3
2022-09-29T23:59:36.504Z,11.2
